createdAt,value
2022-09-02T00:02:27.128Z,2.83
2022-09-02T00:04:54.997Z,2.83
2022-09-02T00:07:22.738Z,2.60
2022-09-02T00:09:50.516Z,2.50
2022-09-02T00:12:18.370Z,2.53
2022-09-02T00:14:46.055Z,2.72
2022-09-02T00:17:13.788Z,2.90
2022-09-02T00:19:41.763Z,2.75
2022-09-02T00:22:09.504Z,2.92
2022-09-02T00:24:37.250Z,2.97
2022-09-02T00:27:05.239Z,2.62
2022-09-02T00:29:33.190Z,2.90
2022-09-02T00:32:01.076Z,2.60
2022-09-02T00:34:28.923Z,3.00
2022-09-02T00:36:56.763Z,2.75
2022-09-02T00:39:24.539Z,2.80
2022-09-02T00:41:52.323Z,3.15
2022-09-02T00:44:21.917Z,2.53
2022-09-02T00:46:49.865Z,2.85
2022-09-02T00:49:26.166Z,2.58
2022-09-02T00:51:56.065Z,2.67
2022-09-02T00:54:24.883Z,2.45
2022-09-02T00:56:53.805Z,2.55
2022-09-02T00:59:49.851Z,2.55
2022-09-02T01:02:18.405Z,2.60
2022-09-02T01:04:47.804Z,2.70
2022-09-02T01:07:17.195Z,2.58
2022-09-02T01:09:44.962Z,2.60
2022-09-02T01:12:16.156Z,2.50
2022-09-02T01:14:44.092Z,2.80
2022-09-02T01:17:11.894Z,2.60
2022-09-02T01:19:41.706Z,3.17
2022-09-02T01:22:23.672Z,2.25
2022-09-02T01:24:51.588Z,2.65
2022-09-02T01:27:21.006Z,2.70
2022-09-02T01:29:56.042Z,2.65
2022-09-02T01:32:23.946Z,2.40
2022-09-02T01:34:51.859Z,2.72
2022-09-02T01:37:20.014Z,2.90
2022-09-02T01:39:47.813Z,2.70
2022-09-02T01:42:15.726Z,2.80
2022-09-02T01:44:46.204Z,2.85
2022-09-02T01:47:20.098Z,2.50
2022-09-02T01:49:48.048Z,2.42
2022-09-02T01:52:15.906Z,2.60
2022-09-02T01:54:43.671Z,2.50
2022-09-02T01:57:11.918Z,2.62
2022-09-02T01:59:39.955Z,2.67
2022-09-02T02:02:08.080Z,2.78
2022-09-02T02:04:35.924Z,2.50
2022-09-02T02:07:03.978Z,2.80
2022-09-02T02:09:31.845Z,2.85
2022-09-02T02:11:59.589Z,2.80
2022-09-02T02:14:27.318Z,2.62
2022-09-02T02:16:55.046Z,3.50
2022-09-02T02:19:22.839Z,2.40
2022-09-02T02:21:50.639Z,2.95
2022-09-02T02:24:18.464Z,3.03
2022-09-02T02:26:46.450Z,2.87
2022-09-02T02:29:14.392Z,2.70
2022-09-02T02:31:42.646Z,2.87
2022-09-02T02:34:11.685Z,2.80
2022-09-02T02:36:40.264Z,3.10
2022-09-02T02:39:08.912Z,2.72
2022-09-02T02:41:37.917Z,2.72
2022-09-02T02:44:05.830Z,3.00
2022-09-02T02:46:34.649Z,2.45
2022-09-02T02:49:03.369Z,2.60
2022-09-02T02:51:31.150Z,2.70
2022-09-02T02:53:59.157Z,3.20
2022-09-02T02:56:26.956Z,3.20
2022-09-02T02:58:54.712Z,3.40
2022-09-02T03:01:22.533Z,2.60
2022-09-02T03:03:50.367Z,3.08
2022-09-02T03:06:23.904Z,2.60
2022-09-02T03:08:54.702Z,2.53
2022-09-02T03:11:23.702Z,2.47
2022-09-02T03:13:51.904Z,2.65
2022-09-02T03:16:20.968Z,2.40
2022-09-02T03:18:49.665Z,2.78
2022-09-02T03:21:17.718Z,3.22
2022-09-02T03:23:46.101Z,2.50
2022-09-02T03:26:15.852Z,2.47
2022-09-02T03:28:46.859Z,2.65
2022-09-02T03:31:19.260Z,2.67
2022-09-02T03:33:47.223Z,2.53
2022-09-02T03:36:29.586Z,2.55
2022-09-02T03:38:57.528Z,2.85
2022-09-02T03:41:25.583Z,2.65
2022-09-02T03:43:53.538Z,2.60
2022-09-02T03:46:21.346Z,2.53
2022-09-02T03:48:51.373Z,2.60
2022-09-02T03:51:20.990Z,2.55
2022-09-02T03:53:49.048Z,2.60
2022-09-02T03:56:17.045Z,2.47
2022-09-02T03:58:45.709Z,2.58
2022-09-02T04:01:20.715Z,2.92
2022-09-02T04:03:48.819Z,2.78
2022-09-02T04:06:17.545Z,2.47
2022-09-02T04:08:46.188Z,2.58
2022-09-02T04:11:17.521Z,2.75
2022-09-02T04:13:46.206Z,3.30
2022-09-02T04:17:10.364Z,2.30
2022-09-02T04:20:34.054Z,2.55
2022-09-02T04:23:01.830Z,2.70
2022-09-02T04:25:30.143Z,2.10
2022-09-02T04:27:57.864Z,2.50
2022-09-02T04:30:26.541Z,2.70
2022-09-02T04:32:54.334Z,2.40
2022-09-02T04:35:22.295Z,2.37
2022-09-02T04:37:50.251Z,2.58
2022-09-02T04:40:18.414Z,2.62
2022-09-02T04:42:46.597Z,2.50
2022-09-02T04:45:19.706Z,2.50
2022-09-02T04:47:47.548Z,2.87
2022-09-02T04:50:15.468Z,2.83
2022-09-02T04:52:43.590Z,2.50
2022-09-02T04:55:11.638Z,3.00
2022-09-02T04:57:39.413Z,3.03
2022-09-02T05:00:08.799Z,2.72
2022-09-02T05:02:42.110Z,3.10
2022-09-02T05:05:15.992Z,2.80
2022-09-02T05:07:43.867Z,2.50
2022-09-02T05:10:13.880Z,2.92
2022-09-02T05:12:43.146Z,2.70
2022-09-02T05:15:12.106Z,2.50
2022-09-02T05:17:40.107Z,2.78
2022-09-02T05:20:09.386Z,2.78
2022-09-02T05:22:37.640Z,2.33
2022-09-02T05:25:10.714Z,2.42
2022-09-02T05:27:38.586Z,2.65
2022-09-02T05:30:06.806Z,2.30
2022-09-02T05:32:37.814Z,2.15
2022-09-02T05:35:06.539Z,2.75
2022-09-02T05:37:34.362Z,2.30
2022-09-02T05:40:02.374Z,2.20
2022-09-02T05:42:31.085Z,2.20
2022-09-02T05:44:58.838Z,2.55
2022-09-02T05:47:26.723Z,2.50
2022-09-02T05:49:54.609Z,2.47
2022-09-02T05:52:22.461Z,2.17
2022-09-02T05:54:50.469Z,2.65
2022-09-02T05:57:18.605Z,2.22
2022-09-02T05:59:47.149Z,2.78
2022-09-02T06:02:15.575Z,2.47
2022-09-02T06:04:45.833Z,2.22
2022-09-02T06:07:14.279Z,2.40
2022-09-02T06:09:42.491Z,2.10
2022-09-02T06:12:10.411Z,2.17
2022-09-02T06:14:39.335Z,2.20
2022-09-02T06:17:07.222Z,2.10
2022-09-02T06:19:35.320Z,2.37
2022-09-02T06:22:04.594Z,2.20
2022-09-02T06:24:32.646Z,2.20
2022-09-02T06:27:02.978Z,2.42
2022-09-02T06:29:31.014Z,2.00
2022-09-02T06:32:00.030Z,2.17
2022-09-02T06:34:33.982Z,2.20
2022-09-02T06:37:01.798Z,2.33
2022-09-02T06:39:30.902Z,2.33
2022-09-02T06:41:58.840Z,1.98
2022-09-02T06:44:26.659Z,2.05
2022-09-02T06:46:58.768Z,2.33
2022-09-02T06:49:27.134Z,2.05
2022-09-02T06:51:56.279Z,2.20
2022-09-02T06:54:24.231Z,2.12
2022-09-02T06:56:52.358Z,1.75
2022-09-02T06:59:20.927Z,2.37
2022-09-02T07:01:49.004Z,2.65
2022-09-02T07:04:35.941Z,2.95
2022-09-02T07:07:05.222Z,2.90
2022-09-02T07:09:33.101Z,2.78
2022-09-02T07:12:04.748Z,2.53
2022-09-02T07:14:36.955Z,2.35
2022-09-02T07:17:05.042Z,2.30
2022-09-02T07:19:32.887Z,2.20
2022-09-02T07:22:00.677Z,2.50
2022-09-02T07:24:28.394Z,2.90
2022-09-02T07:26:56.222Z,2.37
2022-09-02T07:29:24.343Z,2.58
2022-09-02T07:31:52.277Z,2.42
2022-09-02T07:34:20.235Z,2.25
2022-09-02T07:36:48.560Z,2.10
2022-09-02T07:39:16.812Z,2.08
2022-09-02T07:41:45.977Z,2.00
2022-09-02T07:44:13.855Z,2.28
2022-09-02T07:46:41.882Z,2.35
2022-09-02T07:49:12.458Z,2.10
2022-09-02T07:51:42.027Z,2.25
2022-09-02T07:54:10.818Z,2.37
2022-09-02T07:56:38.678Z,2.42
2022-09-02T07:59:06.443Z,1.98
2022-09-02T08:01:35.478Z,2.08
2022-09-02T08:04:06.149Z,2.10
2022-09-02T08:06:35.404Z,2.42
2022-09-02T08:09:07.805Z,1.98
2022-09-02T08:11:38.408Z,1.92
2022-09-02T08:14:08.704Z,2.20
2022-09-02T08:16:36.637Z,2.20
2022-09-02T08:19:04.936Z,2.22
2022-09-02T08:21:33.052Z,2.58
2022-09-02T08:24:01.550Z,2.17
2022-09-02T08:26:30.876Z,2.08
2022-09-02T08:28:58.809Z,2.50
2022-09-02T08:31:27.262Z,2.15
2022-09-02T08:33:55.136Z,2.00
2022-09-02T08:36:23.338Z,2.10
2022-09-02T08:38:51.106Z,2.42
2022-09-02T08:41:28.975Z,3.10
2022-09-02T08:43:59.154Z,1.90
2022-09-02T08:46:28.384Z,3.15
2022-09-02T08:49:19.975Z,2.20
2022-09-02T08:51:53.267Z,2.35
2022-09-02T08:54:46.107Z,2.00
2022-09-02T08:57:13.922Z,2.10
2022-09-02T08:59:41.790Z,2.28
2022-09-02T09:02:28.410Z,2.30
2022-09-02T09:05:12.121Z,2.30
2022-09-02T09:07:54.764Z,2.20
2022-09-02T09:10:39.427Z,2.03
2022-09-02T09:13:17.977Z,2.58
2022-09-02T09:16:21.279Z,2.20
2022-09-02T09:19:14.227Z,2.55
2022-09-02T09:21:43.094Z,2.10
2022-09-02T09:24:37.906Z,1.95
2022-09-02T09:27:16.553Z,2.22
2022-09-02T09:29:44.441Z,2.28
2022-09-02T09:32:23.304Z,2.28
2022-09-02T09:34:54.158Z,1.92
2022-09-02T09:37:35.256Z,2.12
2022-09-02T09:40:24.180Z,2.20
2022-09-02T09:42:59.484Z,1.98
2022-09-02T09:45:33.786Z,2.10
2022-09-02T09:48:29.230Z,2.17
2022-09-02T09:50:56.888Z,2.10
2022-09-02T09:53:25.270Z,1.87
2022-09-02T09:56:14.606Z,2.10
2022-09-02T09:58:42.276Z,2.00
2022-09-02T10:01:28.149Z,2.17
2022-09-02T10:04:00.229Z,2.05
2022-09-02T10:06:31.903Z,2.33
2022-09-02T10:09:07.010Z,2.40
2022-09-02T10:11:36.526Z,2.20
2022-09-02T10:14:11.479Z,2.08
2022-09-02T10:16:48.262Z,1.95
2022-09-02T10:19:27.884Z,2.20
2022-09-02T10:22:11.924Z,1.90
2022-09-02T10:25:08.895Z,2.03
2022-09-02T10:27:55.567Z,1.95
2022-09-02T10:30:24.179Z,2.17
2022-09-02T10:33:30.204Z,2.35
2022-09-02T10:36:07.930Z,2.55
2022-09-02T10:38:41.245Z,2.08
2022-09-02T10:41:23.985Z,2.40
2022-09-02T10:44:22.283Z,2.30
2022-09-02T10:47:02.640Z,2.42
2022-09-02T10:49:46.376Z,2.37
2022-09-02T10:52:32.795Z,2.55
2022-09-02T10:55:13.827Z,2.03
2022-09-02T10:57:50.483Z,2.10
2022-09-02T11:00:21.799Z,2.25
2022-09-02T11:02:57.054Z,2.05
2022-09-02T11:05:29.209Z,2.10
2022-09-02T11:08:12.348Z,2.10
2022-09-02T11:10:59.779Z,2.80
2022-09-02T11:13:33.110Z,2.33
2022-09-02T11:16:04.595Z,2.47
2022-09-02T11:18:54.131Z,2.60
2022-09-02T11:21:52.453Z,2.12
2022-09-02T11:24:43.304Z,1.95
2022-09-02T11:27:52.079Z,2.03
2022-09-02T11:30:23.956Z,2.17
2022-09-02T11:32:55.799Z,2.50
2022-09-02T11:35:29.206Z,2.35
2022-09-02T11:38:11.557Z,2.20
2022-09-02T11:41:36.409Z,2.15
2022-09-02T11:44:14.952Z,2.30
2022-09-02T11:47:04.356Z,2.70
2022-09-02T11:49:44.614Z,2.33
2022-09-02T11:55:07.466Z,2.35
2022-09-02T11:57:35.263Z,2.00
2022-09-02T12:00:05.114Z,2.00
2022-09-02T12:03:11.502Z,2.10
2022-09-02T12:05:44.831Z,2.00
2022-09-02T12:08:16.108Z,2.17
2022-09-02T12:10:44.832Z,2.33
2022-09-02T12:16:22.564Z,2.33
2022-09-02T12:18:55.206Z,1.87
2022-09-02T12:21:23.691Z,2.33
2022-09-02T12:23:54.785Z,2.20
2022-09-02T12:26:37.578Z,2.08
2022-09-02T12:29:20.525Z,2.12
2022-09-02T12:31:52.233Z,2.22
2022-09-02T12:34:26.692Z,2.30
2022-09-02T12:37:04.098Z,2.00
2022-09-02T12:39:36.653Z,2.30
2022-09-02T12:42:13.905Z,2.37
2022-09-02T12:45:12.245Z,2.40
2022-09-02T12:48:07.558Z,2.08
2022-09-02T12:50:56.648Z,2.60
2022-09-02T12:53:36.190Z,2.15
2022-09-02T12:56:06.545Z,2.50
2022-09-02T12:58:42.531Z,2.10
2022-09-02T13:01:14.957Z,2.25
2022-09-02T13:04:08.738Z,2.30
2022-09-02T13:07:01.179Z,1.80
2022-09-02T13:09:56.454Z,2.45
2022-09-02T13:12:37.682Z,1.70
2022-09-02T13:15:49.355Z,1.87
2022-09-02T13:19:02.797Z,1.90
2022-09-02T13:21:49.264Z,1.80
2022-09-02T13:24:30.728Z,1.87
2022-09-02T13:27:12.004Z,1.90
2022-09-02T13:30:04.262Z,2.05
2022-09-02T13:32:32.343Z,2.10
2022-09-02T13:35:03.313Z,1.87
2022-09-02T13:37:31.194Z,2.00
2022-09-02T13:39:59.118Z,1.95
2022-09-02T13:42:32.910Z,1.70
2022-09-02T13:45:16.128Z,2.00
2022-09-02T13:47:45.370Z,1.77
2022-09-02T13:50:14.963Z,2.08
2022-09-02T13:53:34.395Z,1.83
2022-09-02T13:55:30.993Z,1.42
2022-09-02T13:58:04.666Z,1.85
2022-09-02T14:00:37.898Z,2.15
2022-09-02T14:03:07.800Z,2.17
2022-09-02T14:05:37.186Z,1.60
2022-09-02T14:08:08.097Z,1.80
2022-09-02T14:10:36.419Z,1.92
2022-09-02T14:13:07.073Z,1.50
2022-09-02T14:15:35.404Z,1.80
2022-09-02T14:18:22.115Z,1.62
2022-09-02T14:21:17.065Z,1.77
2022-09-02T14:23:49.793Z,1.70
2022-09-02T14:26:34.122Z,1.90
2022-09-02T14:29:01.893Z,1.70
2022-09-02T14:31:31.855Z,1.70
2022-09-02T14:33:59.699Z,2.33
2022-09-02T14:36:27.372Z,2.00
2022-09-02T14:38:56.990Z,1.98
2022-09-02T14:41:25.866Z,1.95
2022-09-02T14:44:11.502Z,2.10
2022-09-02T14:46:44.655Z,2.08
2022-09-02T14:49:18.859Z,2.12
2022-09-02T14:51:56.974Z,2.03
2022-09-02T14:54:45.571Z,1.80
2022-09-02T14:57:22.167Z,1.65
2022-09-02T14:59:50.549Z,1.70
2022-09-02T15:02:34.690Z,1.85
2022-09-02T15:05:07.461Z,2.00
2022-09-02T15:07:35.470Z,2.10
2022-09-02T15:10:03.271Z,1.90
2022-09-02T15:12:33.336Z,1.55
2022-09-02T15:15:01.165Z,1.75
2022-09-02T15:17:29.641Z,1.70
2022-09-02T15:19:57.772Z,2.00
2022-09-02T15:22:25.650Z,2.12
2022-09-02T15:24:53.399Z,2.22
2022-09-02T15:27:21.819Z,2.17
2022-09-02T15:29:50.216Z,2.12
2022-09-02T15:32:18.110Z,2.35
2022-09-02T15:34:46.378Z,2.03
2022-09-02T15:37:14.213Z,2.30
2022-09-02T15:39:42.354Z,1.67
2022-09-02T15:42:10.278Z,1.67
2022-09-02T15:44:38.829Z,2.10
2022-09-02T15:47:12.539Z,1.87
2022-09-02T15:49:40.310Z,2.47
2022-09-02T15:52:08.181Z,1.98
2022-09-02T15:55:04.832Z,2.03
2022-09-02T15:57:33.052Z,2.00
2022-09-02T16:00:01.379Z,2.10
2022-09-02T16:02:34.806Z,3.20
2022-09-02T16:05:02.927Z,1.98
2022-09-02T16:07:31.009Z,2.00
2022-09-02T16:10:03.322Z,2.25
2022-09-02T16:12:32.849Z,2.20
2022-09-02T16:15:01.187Z,2.20
2022-09-02T16:17:29.014Z,2.70
2022-09-02T16:19:57.005Z,2.00
2022-09-02T16:22:24.795Z,2.17
2022-09-02T16:24:52.624Z,2.35
2022-09-02T16:27:41.061Z,2.20
2022-09-02T16:30:09.202Z,2.22
2022-09-02T16:32:38.964Z,2.10
2022-09-02T16:35:07.362Z,2.50
2022-09-02T16:37:35.267Z,2.30
2022-09-02T16:40:04.798Z,2.60
2022-09-02T16:42:37.478Z,1.95
2022-09-02T16:45:06.725Z,2.12
2022-09-02T16:47:34.939Z,2.55
2022-09-02T16:50:03.136Z,2.55
2022-09-02T16:52:33.300Z,2.53
2022-09-02T16:55:01.048Z,2.62
2022-09-02T16:57:28.820Z,3.12
2022-09-02T16:59:56.548Z,2.95
2022-09-02T17:02:24.654Z,2.83
2022-09-02T17:04:52.540Z,2.22
2022-09-02T17:07:21.267Z,2.62
2022-09-02T17:09:49.115Z,2.87
2022-09-02T17:12:16.982Z,2.30
2022-09-02T17:14:44.749Z,2.58
2022-09-02T17:17:16.017Z,2.40
2022-09-02T17:19:44.031Z,2.83
2022-09-02T17:22:11.849Z,2.50
2022-09-02T17:24:42.931Z,2.78
2022-09-02T17:27:10.721Z,2.60
2022-09-02T17:29:49.599Z,2.83
2022-09-02T17:32:18.436Z,2.80
2022-09-02T17:34:46.352Z,2.58
2022-09-02T17:37:14.202Z,2.40
2022-09-02T17:39:42.101Z,2.35
2022-09-02T17:42:09.943Z,2.72
2022-09-02T17:44:39.793Z,2.80
2022-09-02T17:47:15.327Z,2.58
2022-09-02T17:49:45.231Z,2.50
2022-09-02T17:52:21.028Z,2.50
2022-09-02T17:54:53.094Z,2.80
2022-09-02T17:57:47.278Z,2.50
2022-09-02T18:00:23.441Z,2.97
2022-09-02T18:02:55.200Z,2.60
2022-09-02T18:05:41.675Z,2.75
2022-09-02T18:08:34.459Z,2.58
2022-09-02T18:11:07.810Z,2.47
2022-09-02T18:13:40.907Z,2.72
2022-09-02T18:16:33.188Z,2.62
2022-09-02T18:19:03.896Z,2.90
2022-09-02T18:21:38.292Z,3.47
2022-09-02T18:24:28.475Z,2.90
2022-09-02T18:27:19.555Z,2.72
2022-09-02T18:30:16.258Z,2.78
2022-09-02T18:33:03.111Z,2.65
2022-09-02T18:35:51.106Z,3.15
2022-09-02T18:38:43.842Z,2.78
2022-09-02T18:41:37.104Z,3.17
2022-09-02T18:44:10.225Z,3.30
2022-09-02T18:47:00.920Z,2.85
2022-09-02T18:49:29.269Z,3.10
2022-09-02T18:52:01.346Z,3.58
2022-09-02T18:54:47.500Z,3.12
2022-09-02T18:57:15.879Z,2.90
2022-09-02T18:59:52.196Z,3.00
2022-09-02T19:02:22.104Z,2.95
2022-09-02T19:04:50.062Z,2.85
2022-09-02T19:07:38.318Z,2.62
2022-09-02T19:10:11.634Z,3.30
2022-09-02T19:12:40.291Z,3.87
2022-09-02T19:15:10.003Z,3.72
2022-09-02T19:17:41.151Z,3.30
2022-09-02T19:20:09.686Z,4.18
2022-09-02T19:22:40.910Z,3.70
2022-09-02T19:25:11.515Z,3.55
2022-09-02T19:27:40.341Z,3.60
2022-09-02T19:30:16.850Z,3.37
2022-09-02T19:32:45.946Z,3.00
2022-09-02T19:35:17.836Z,3.22
2022-09-02T19:37:51.375Z,3.17
2022-09-02T19:40:34.981Z,3.17
2022-09-02T19:43:06.009Z,3.15
2022-09-02T19:45:38.520Z,3.53
2022-09-02T19:48:12.492Z,3.28
2022-09-02T19:50:49.077Z,3.20
2022-09-02T19:53:29.301Z,3.15
2022-09-02T19:56:03.512Z,3.08
2022-09-02T19:58:37.552Z,3.28
2022-09-02T20:01:17.009Z,3.10
2022-09-02T20:03:50.607Z,3.10
2022-09-02T20:06:23.315Z,2.95
2022-09-02T20:08:51.517Z,3.80
2022-09-02T20:11:31.804Z,3.10
2022-09-02T20:14:00.503Z,3.05
2022-09-02T20:16:34.267Z,3.20
2022-09-02T20:19:06.976Z,3.00
2022-09-02T20:21:58.072Z,3.22
2022-09-02T20:24:28.547Z,2.97
2022-09-02T20:27:00.249Z,3.42
2022-09-02T20:29:44.359Z,3.17
2022-09-02T20:32:24.768Z,3.47
2022-09-02T20:35:16.421Z,3.40
2022-09-02T20:38:05.807Z,4.32
2022-09-02T20:40:56.850Z,3.80
2022-09-02T20:43:53.921Z,4.05
2022-09-02T20:46:24.317Z,3.80
2022-09-02T20:49:04.718Z,4.20
2022-09-02T20:51:40.102Z,3.75
2022-09-02T20:54:26.582Z,4.07
2022-09-02T20:57:11.934Z,4.18
2022-09-02T21:00:00.212Z,3.65
2022-09-02T21:02:30.570Z,3.37
2022-09-02T21:05:05.136Z,3.47
2022-09-02T21:07:35.991Z,3.80
2022-09-02T21:10:15.780Z,3.37
2022-09-02T21:12:54.636Z,3.60
2022-09-02T21:15:36.384Z,3.25
2022-09-02T21:18:06.397Z,3.58
2022-09-02T21:20:50.753Z,3.40
2022-09-02T21:23:29.656Z,3.10
2022-09-02T21:25:59.078Z,3.87
2022-09-02T21:28:35.418Z,3.40
2022-09-02T21:31:09.994Z,3.85
2022-09-02T21:33:37.827Z,3.80
2022-09-02T21:36:06.405Z,3.78
2022-09-02T21:38:47.324Z,3.37
2022-09-02T21:41:35.119Z,3.78
2022-09-02T21:44:05.654Z,3.90
2022-09-02T21:46:45.249Z,3.53
2022-09-02T21:49:34.934Z,3.87
2022-09-02T21:52:19.367Z,3.83
2022-09-02T21:55:01.698Z,3.17
2022-09-02T21:58:07.896Z,4.18
2022-09-02T22:00:36.041Z,3.83
2022-09-02T22:03:17.446Z,3.75
2022-09-02T22:05:53.437Z,3.85
2022-09-02T22:08:54.285Z,3.85
2022-09-02T22:11:24.809Z,3.65
2022-09-02T22:13:52.645Z,3.83
2022-09-02T22:16:27.359Z,3.92
2022-09-02T22:19:02.546Z,4.05
2022-09-02T22:21:50.274Z,4.15
2022-09-02T22:24:19.455Z,4.93
2022-09-02T22:26:54.145Z,4.60
2022-09-02T22:29:43.754Z,4.62
2022-09-02T22:32:13.664Z,4.30
2022-09-02T22:35:02.401Z,4.10
2022-09-02T22:37:38.693Z,4.20
2022-09-02T22:40:08.841Z,4.30
2022-09-02T22:42:37.896Z,4.20
2022-09-02T22:45:28.674Z,3.90
2022-09-02T22:48:24.690Z,4.35
2022-09-02T22:51:17.206Z,4.05
2022-09-02T22:53:48.617Z,5.00
2022-09-02T22:56:16.418Z,4.35
2022-09-02T22:58:59.805Z,4.47
2022-09-02T23:01:58.370Z,4.95
2022-09-02T23:04:46.387Z,4.70
2022-09-02T23:07:14.582Z,4.45
2022-09-02T23:09:42.441Z,4.10
2022-09-02T23:12:17.951Z,4.37
2022-09-02T23:15:16.443Z,4.75
2022-09-02T23:17:59.035Z,4.10
2022-09-02T23:20:43.367Z,4.03
2022-09-02T23:23:32.826Z,3.83
2022-09-02T23:26:27.080Z,3.95
2022-09-02T23:29:11.011Z,4.55
2022-09-02T23:32:24.648Z,4.55
2022-09-02T23:34:53.129Z,4.60
2022-09-02T23:37:28.120Z,4.22
2022-09-02T23:40:17.741Z,4.37
2022-09-02T23:42:45.709Z,4.25
2022-09-02T23:45:24.366Z,4.12
2022-09-02T23:48:25.409Z,6.07
2022-09-02T23:51:07.487Z,5.20
2022-09-02T23:53:40.459Z,4.45
2022-09-02T23:56:14.253Z,4.37
2022-09-02T23:58:53.407Z,4.20
